Terminal Aerodrome Forecast
Issued by NWS Duluth, MN

Home | Current Version | Previous Version | Text Only | Print | Product List | Glossary On
Versions: 1 2 3 4 5 6 7 8 9 10 11 12 13 14 15 16 17 18 19 20 21 22 23 24 25 26 27 28 29 30 31 32 33 34 35
655
FTUS43 KDLH 260533
TAFDLH
TAF
KDLH 260533Z 2606/2706 27014KT P6SM VCSH BKN014 BKN022 BKN035
     FM260700 28017G24KT P6SM -SHRA BKN014 OVC050
     FM261200 29020G28KT P6SM VCSH SCT015 BKN050
     FM261600 29020G28KT P6SM VCSH OVC022=

USA.gov is the U.S. government's official web portal to all federal, state and local government web resources and services.